createdAt,value
2023-05-18T00:03:33.884Z,9.42
2023-05-18T00:08:36.984Z,9.61
2023-05-18T00:13:35.907Z,9.46
2023-05-18T00:18:34.909Z,9.22
2023-05-18T00:23:33.764Z,9.25
2023-05-18T00:28:32.577Z,8.99
2023-05-18T00:33:31.640Z,9.01
2023-05-18T00:38:30.567Z,8.96
2023-05-18T00:43:29.323Z,9.27
2023-05-18T00:48:28.284Z,8.44
2023-05-18T00:53:27.272Z,8.89
2023-05-18T00:58:27.100Z,8.53
2023-05-18T01:03:26.507Z,8.64
2023-05-18T01:08:27.467Z,8.78
2023-05-18T01:13:42.820Z,9.14
2023-05-18T01:18:47.585Z,8.54
2023-05-18T01:24:16.216Z,8.17
2023-05-18T01:29:16.471Z,8.97
2023-05-18T01:34:15.456Z,8.15
2023-05-18T01:39:14.696Z,8.10
2023-05-18T01:44:32.982Z,8.05
2023-05-18T01:49:44.026Z,8.19
2023-05-18T01:54:46.316Z,7.53
2023-05-18T01:59:45.736Z,7.86
2023-05-18T02:04:44.544Z,8.42
2023-05-18T02:09:44.524Z,8.48
2023-05-18T02:14:43.634Z,7.82
2023-05-18T02:19:43.205Z,7.81
2023-05-18T02:24:42.111Z,7.91
2023-05-18T02:29:41.105Z,7.59
2023-05-18T02:34:42.234Z,7.48
2023-05-18T02:39:41.238Z,8.33
2023-05-18T02:44:40.083Z,7.72
2023-05-18T02:49:39.148Z,7.69
2023-05-18T02:54:38.389Z,7.44
2023-05-18T02:59:43.813Z,7.70
2023-05-18T03:04:42.968Z,7.43
2023-05-18T03:09:41.946Z,7.31
2023-05-18T03:14:40.950Z,7.58
2023-05-18T03:19:43.262Z,7.90
2023-05-18T03:24:43.355Z,6.94
2023-05-18T03:29:46.587Z,7.08
2023-05-18T03:34:47.754Z,7.29
2023-05-18T03:39:47.455Z,7.31
2023-05-18T03:44:47.597Z,7.43
2023-05-18T03:49:46.733Z,7.61
2023-05-18T03:54:45.965Z,7.71
2023-05-18T03:59:45.711Z,7.83
2023-05-18T04:04:46.239Z,7.55
2023-05-18T04:09:45.898Z,7.42
2023-05-18T04:14:49.375Z,7.71
2023-05-18T04:19:50.097Z,7.92
2023-05-18T04:24:49.102Z,8.27
2023-05-18T04:29:49.259Z,8.34
2023-05-18T04:34:49.770Z,8.21
2023-05-18T04:39:49.241Z,8.23
2023-05-18T04:44:48.986Z,8.53
2023-05-18T04:49:49.198Z,8.70
2023-05-18T04:54:48.197Z,8.83
2023-05-18T04:59:48.065Z,9.42
2023-05-18T05:04:47.026Z,9.27
2023-05-18T05:09:46.172Z,10.20
2023-05-18T05:14:45.044Z,10.28
2023-05-18T05:19:43.985Z,10.74
2023-05-18T05:24:43.765Z,10.81
2023-05-18T05:29:43.227Z,11.18
2023-05-18T05:34:46.696Z,11.52
2023-05-18T05:39:46.339Z,11.57
2023-05-18T05:44:48.725Z,11.23
2023-05-18T05:49:50.377Z,11.27
2023-05-18T05:54:49.865Z,11.29
2023-05-18T05:59:48.756Z,11.36
2023-05-18T06:04:47.686Z,11.62
2023-05-18T06:09:46.812Z,11.74
2023-05-18T06:14:47.138Z,12.26
2023-05-18T06:19:46.124Z,12.27
2023-05-18T06:24:45.149Z,11.98
2023-05-18T06:30:13.701Z,12.49
2023-05-18T06:35:30.478Z,12.91
2023-05-18T06:40:29.581Z,13.43
2023-05-18T06:45:29.337Z,13.48
2023-05-18T06:50:40.443Z,13.50
2023-05-18T06:55:42.082Z,13.83
2023-05-18T07:00:41.688Z,13.72
2023-05-18T07:05:41.645Z,13.60
2023-05-18T07:10:40.673Z,13.63
2023-05-18T07:15:39.526Z,13.74
2023-05-18T07:20:38.422Z,14.17
2023-05-18T07:25:37.262Z,14.18
2023-05-18T07:30:36.272Z,15.10
2023-05-18T07:35:35.100Z,15.46
2023-05-18T07:40:33.976Z,15.19
2023-05-18T07:45:33.129Z,14.87
2023-05-18T07:50:32.403Z,14.57
2023-05-18T07:55:31.893Z,14.91
2023-05-18T08:00:31.502Z,14.65
2023-05-18T08:05:31.479Z,15.02
2023-05-18T08:10:30.651Z,14.81
2023-05-18T08:15:29.711Z,14.70
2023-05-18T08:20:30.233Z,14.16
2023-05-18T08:25:29.431Z,14.16
2023-05-18T08:30:28.573Z,14.62
2023-05-18T08:35:27.461Z,14.77
2023-05-18T08:40:46.865Z,15.38
2023-05-18T08:45:55.063Z,14.95
2023-05-18T08:50:58.208Z,15.19
2023-05-18T08:56:00.495Z,15.44
2023-05-18T09:00:59.318Z,15.84
2023-05-18T09:06:00.510Z,16.26
2023-05-18T09:11:01.770Z,16.21
2023-05-18T09:16:00.903Z,16.07
2023-05-18T09:21:00.020Z,15.73
2023-05-18T09:25:59.244Z,15.93
2023-05-18T09:30:58.154Z,15.80
2023-05-18T09:35:57.202Z,16.48
2023-05-18T09:40:56.025Z,17.49
2023-05-18T09:45:55.161Z,17.59
2023-05-18T09:50:54.243Z,17.85
2023-05-18T09:55:53.104Z,17.92
2023-05-18T10:00:54.126Z,17.95
2023-05-18T10:05:53.110Z,17.82
2023-05-18T10:10:51.978Z,18.01
2023-05-18T10:16:10.538Z,18.10
2023-05-18T10:21:12.578Z,18.05
2023-05-18T10:26:12.697Z,18.10
2023-05-18T10:31:12.661Z,17.69
2023-05-18T10:36:12.569Z,17.43
2023-05-18T10:41:13.625Z,17.50
2023-05-18T10:46:16.193Z,17.63
2023-05-18T10:51:15.491Z,17.99
2023-05-18T10:56:16.775Z,17.73
2023-05-18T11:01:16.266Z,18.08
2023-05-18T11:06:23.320Z,18.14
2023-05-18T11:11:28.245Z,18.36
2023-05-18T11:16:35.560Z,18.06
2023-05-18T11:21:41.400Z,17.58
2023-05-18T11:26:41.702Z,17.26
2023-05-18T11:31:45.603Z,16.96
2023-05-18T11:36:45.280Z,17.36
2023-05-18T11:41:47.737Z,17.94
2023-05-18T11:46:56.896Z,17.56
2023-05-18T11:51:58.458Z,17.60
2023-05-18T11:56:59.131Z,17.25
2023-05-18T12:02:01.561Z,17.77
2023-05-18T12:07:04.246Z,17.88
2023-05-18T12:12:03.160Z,17.41
2023-05-18T12:17:02.361Z,17.52
2023-05-18T12:22:02.946Z,17.83
2023-05-18T12:27:07.312Z,17.89
2023-05-18T12:32:09.514Z,17.60
2023-05-18T12:37:08.393Z,17.78
2023-05-18T12:42:14.563Z,18.00
2023-05-18T12:47:14.472Z,18.14
2023-05-18T12:52:15.289Z,17.91
2023-05-18T12:57:16.496Z,17.65
2023-05-18T13:02:28.955Z,17.82
2023-05-18T13:07:27.981Z,18.04
2023-05-18T13:12:43.902Z,18.11
2023-05-18T13:18:12.237Z,17.62
2023-05-18T13:23:14.225Z,17.32
2023-05-18T13:28:16.447Z,18.32
2023-05-18T13:33:19.674Z,18.27
2023-05-18T13:38:18.560Z,18.06
2023-05-18T13:43:17.340Z,17.95
2023-05-18T13:48:16.410Z,18.61
2023-05-18T13:53:15.760Z,18.81
2023-05-18T13:58:14.675Z,17.99
2023-05-18T14:03:15.372Z,17.80
2023-05-18T14:08:14.507Z,17.51
2023-05-18T14:13:16.163Z,17.84
2023-05-18T14:18:16.436Z,17.84
2023-05-18T14:23:15.517Z,18.33
2023-05-18T14:28:14.456Z,17.99
2023-05-18T14:33:13.391Z,18.07
2023-05-18T14:38:12.330Z,18.11
2023-05-18T14:43:11.251Z,18.30
2023-05-18T14:48:11.278Z,19.04
2023-05-18T14:53:10.260Z,18.72
2023-05-18T14:58:12.429Z,18.57
2023-05-18T15:03:11.382Z,19.03
2023-05-18T15:08:10.408Z,19.00
2023-05-18T15:13:09.328Z,18.81
2023-05-18T15:18:08.465Z,18.35
2023-05-18T15:23:07.340Z,18.17
2023-05-18T15:28:06.995Z,17.88
2023-05-18T15:33:06.351Z,17.61
2023-05-18T15:38:05.342Z,17.41
2023-05-18T15:43:04.161Z,17.47
2023-05-18T15:48:03.195Z,17.54
2023-05-18T15:53:02.241Z,17.49
2023-05-18T15:58:01.227Z,17.20
2023-05-18T16:03:00.377Z,17.28
2023-05-18T16:07:59.767Z,17.22
2023-05-18T16:13:06.163Z,16.94
2023-05-18T16:18:05.550Z,17.12
2023-05-18T16:23:04.786Z,17.30
2023-05-18T16:28:03.745Z,17.23
2023-05-18T16:33:02.704Z,17.65
2023-05-18T16:38:01.705Z,17.80
2023-05-18T16:43:00.747Z,17.31
2023-05-18T16:48:00.971Z,17.25
2023-05-18T16:53:00.155Z,17.29
2023-05-18T16:57:59.492Z,16.95
2023-05-18T17:02:59.231Z,16.82
2023-05-18T17:07:58.260Z,16.87
2023-05-18T17:12:58.172Z,17.05
2023-05-18T17:17:57.230Z,17.03
2023-05-18T17:22:56.298Z,16.90
2023-05-18T17:27:55.413Z,16.69
2023-05-18T17:32:55.628Z,16.82
2023-05-18T17:37:55.047Z,16.64
2023-05-18T17:42:53.914Z,16.53
2023-05-18T17:47:53.077Z,16.46
2023-05-18T17:52:51.903Z,16.42
2023-05-18T17:57:54.357Z,16.28
2023-05-18T18:02:53.973Z,16.25
2023-05-18T18:07:54.098Z,15.95
2023-05-18T18:12:52.982Z,15.99
2023-05-18T18:17:51.825Z,15.89
2023-05-18T18:22:50.859Z,15.76
2023-05-18T18:27:49.669Z,15.84
2023-05-18T18:32:49.463Z,15.88
2023-05-18T18:37:48.560Z,15.73
2023-05-18T18:42:47.942Z,15.72
2023-05-18T18:47:47.095Z,15.48
2023-05-18T18:52:46.030Z,15.53
2023-05-18T18:57:45.982Z,15.59
2023-05-18T19:02:44.748Z,15.34
2023-05-18T19:07:43.708Z,15.37
2023-05-18T19:12:45.554Z,15.32
2023-05-18T19:17:52.092Z,15.30
2023-05-18T19:22:53.473Z,15.15
2023-05-18T19:27:53.754Z,15.18
2023-05-18T19:32:53.472Z,14.95
2023-05-18T19:37:52.494Z,14.76
2023-05-18T19:42:51.440Z,14.49
2023-05-18T19:47:50.384Z,14.55
2023-05-18T19:52:50.061Z,14.33
2023-05-18T19:57:48.835Z,14.35
2023-05-18T20:02:47.913Z,14.30
2023-05-18T20:07:46.876Z,13.95
2023-05-18T20:12:45.814Z,14.18
2023-05-18T20:17:44.832Z,14.08
2023-05-18T20:22:43.665Z,14.05
2023-05-18T20:27:42.624Z,13.87
2023-05-18T20:32:41.482Z,13.82
2023-05-18T20:37:41.553Z,13.51
2023-05-18T20:42:41.114Z,13.22
2023-05-18T20:47:41.804Z,12.92
2023-05-18T20:52:41.110Z,12.91
2023-05-18T20:57:43.511Z,13.02
2023-05-18T21:02:48.408Z,13.01
2023-05-18T21:07:48.846Z,12.78
2023-05-18T21:12:51.173Z,13.30
2023-05-18T21:17:50.296Z,12.70
2023-05-18T21:22:49.529Z,12.41
2023-05-18T21:27:48.576Z,12.66
2023-05-18T21:32:48.628Z,12.75
2023-05-18T21:37:47.528Z,12.58
2023-05-18T21:42:47.241Z,12.45
2023-05-18T21:47:46.262Z,12.82
2023-05-18T21:52:48.225Z,13.18
2023-05-18T21:57:47.112Z,12.95
2023-05-18T22:02:46.238Z,13.09
2023-05-18T22:07:45.095Z,12.46
2023-05-18T22:12:44.167Z,12.20
2023-05-18T22:17:43.090Z,12.01
2023-05-18T22:22:41.992Z,12.28
2023-05-18T22:27:41.121Z,11.86
2023-05-18T22:32:40.083Z,12.00
2023-05-18T22:37:39.075Z,12.36
2023-05-18T22:42:37.876Z,12.10
2023-05-18T22:47:39.049Z,12.06
2023-05-18T22:52:38.194Z,12.11
2023-05-18T22:57:37.509Z,12.42
2023-05-18T23:02:37.582Z,11.84
2023-05-18T23:07:41.929Z,12.02
2023-05-18T23:12:41.646Z,12.25
2023-05-18T23:17:40.466Z,11.76
2023-05-18T23:22:43.858Z,12.10
2023-05-18T23:27:42.776Z,11.79
2023-05-18T23:32:42.093Z,11.64
2023-05-18T23:37:42.419Z,11.64
2023-05-18T23:42:41.558Z,11.61
2023-05-18T23:47:41.042Z,11.55
2023-05-18T23:52:41.635Z,11.58
2023-05-18T23:57:40.982Z,11.88
